sensor_id;sensor_type;location;lat;lon;timestamp;pressure;altitude;pressure_sealevel;temperature;humidity
77877;BME280;67251;50.844;7.978;2023-04-30T00:02:06;99381.47;;;4.25;96.69
77877;BME280;67251;50.844;7.978;2023-04-30T00:04:32;99383.34;;;4.15;96.77
77877;BME280;67251;50.844;7.978;2023-04-30T00:06:58;99388.66;;;4.15;97.01
77877;BME280;67251;50.844;7.978;2023-04-30T00:09:23;99383.19;;;4.16;97.31
77877;BME280;67251;50.844;7.978;2023-04-30T00:11:49;99388.50;;;4.16;97.33
77877;BME280;67251;50.844;7.978;2023-04-30T00:14:14;99384.31;;;4.14;97.37
77877;BME280;67251;50.844;7.978;2023-04-30T00:16:40;99388.94;;;4.12;97.39
77877;BME280;67251;50.844;7.978;2023-04-30T00:19:05;99386.88;;;4.05;97.33
77877;BME280;67251;50.844;7.978;2023-04-30T00:21:31;99381.19;;;4.00;97.39
77877;BME280;67251;50.844;7.978;2023-04-30T00:23:56;99380.13;;;3.83;96.97
77877;BME280;67251;50.844;7.978;2023-04-30T00:26:24;99373.47;;;3.70;97.09
77877;BME280;67251;50.844;7.978;2023-04-30T00:28:49;99376.31;;;3.58;97.11
77877;BME280;67251;50.844;7.978;2023-04-30T00:31:15;99384.28;;;3.49;97.10
77877;BME280;67251;50.844;7.978;2023-04-30T00:33:40;99381.91;;;3.46;97.28
77877;BME280;67251;50.844;7.978;2023-04-30T00:36:05;99380.38;;;3.43;97.77
77877;BME280;67251;50.844;7.978;2023-04-30T00:38:31;99385.13;;;3.40;97.47
77877;BME280;67251;50.844;7.978;2023-04-30T00:40:57;99384.56;;;3.36;97.65
77877;BME280;67251;50.844;7.978;2023-04-30T00:43:22;99386.97;;;3.29;97.48
77877;BME280;67251;50.844;7.978;2023-04-30T00:45:47;99387.25;;;3.17;97.45
77877;BME280;67251;50.844;7.978;2023-04-30T00:48:13;99391.72;;;3.06;97.24
77877;BME280;67251;50.844;7.978;2023-04-30T00:50:38;99388.91;;;2.98;97.42
77877;BME280;67251;50.844;7.978;2023-04-30T00:53:05;99394.22;;;2.89;97.33
77877;BME280;67251;50.844;7.978;2023-04-30T00:55:30;99396.69;;;2.80;97.51
77877;BME280;67251;50.844;7.978;2023-04-30T00:57:57;99391.97;;;2.74;97.60
77877;BME280;67251;50.844;7.978;2023-04-30T01:00:23;99398.91;;;2.66;97.47
77877;BME280;67251;50.844;7.978;2023-04-30T01:02:49;99392.94;;;2.64;97.55
77877;BME280;67251;50.844;7.978;2023-04-30T01:05:14;99398.09;;;2.65;97.66
77877;BME280;67251;50.844;7.978;2023-04-30T01:07:40;99396.13;;;2.77;98.20
77877;BME280;67251;50.844;7.978;2023-04-30T01:10:10;99400.31;;;2.70;98.16
77877;BME280;67251;50.844;7.978;2023-04-30T01:15:13;99404.34;;;2.54;97.82
77877;BME280;67251;50.844;7.978;2023-04-30T01:17:53;99403.84;;;2.40;97.88
77877;BME280;67251;50.844;7.978;2023-04-30T01:20:20;99403.00;;;2.29;97.62
77877;BME280;67251;50.844;7.978;2023-04-30T01:23:06;99399.72;;;2.47;98.21
77877;BME280;67251;50.844;7.978;2023-04-30T01:26:12;99408.88;;;2.43;98.43
77877;BME280;67251;50.844;7.978;2023-04-30T01:28:42;99406.63;;;2.28;98.26
77877;BME280;67251;50.844;7.978;2023-04-30T01:31:13;99403.81;;;2.20;98.25
77877;BME280;67251;50.844;7.978;2023-04-30T01:33:39;99406.44;;;2.20;98.17
77877;BME280;67251;50.844;7.978;2023-04-30T01:41:28;99400.75;;;2.25;98.67
77877;BME280;67251;50.844;7.978;2023-04-30T01:47:05;99406.56;;;2.09;98.54
77877;BME280;67251;50.844;7.978;2023-04-30T01:52:46;99411.94;;;1.98;98.75
77877;BME280;67251;50.844;7.978;2023-04-30T01:55:20;99400.69;;;2.05;98.79
77877;BME280;67251;50.844;7.978;2023-04-30T01:57:57;99408.06;;;2.12;98.93
77877;BME280;67251;50.844;7.978;2023-04-30T02:00:24;99398.16;;;2.35;99.59
77877;BME280;67251;50.844;7.978;2023-04-30T02:02:50;99403.63;;;2.52;99.81
77877;BME280;67251;50.844;7.978;2023-04-30T02:05:15;99403.63;;;2.62;100.00
77877;BME280;67251;50.844;7.978;2023-04-30T02:07:43;99413.13;;;2.84;100.00
77877;BME280;67251;50.844;7.978;2023-04-30T02:10:09;99415.22;;;2.90;100.00
77877;BME280;67251;50.844;7.978;2023-04-30T02:12:36;99414.09;;;2.93;100.00
77877;BME280;67251;50.844;7.978;2023-04-30T02:15:03;99413.38;;;2.91;100.00
77877;BME280;67251;50.844;7.978;2023-04-30T02:17:28;99414.94;;;2.84;100.00
77877;BME280;67251;50.844;7.978;2023-04-30T02:19:54;99414.78;;;2.75;100.00
77877;BME280;67251;50.844;7.978;2023-04-30T02:22:22;99420.06;;;2.75;100.00
77877;BME280;67251;50.844;7.978;2023-04-30T02:24:47;99424.78;;;2.81;100.00
77877;BME280;67251;50.844;7.978;2023-04-30T02:27:13;99427.72;;;2.88;100.00
77877;BME280;67251;50.844;7.978;2023-04-30T02:29:38;99426.91;;;3.07;100.00
77877;BME280;67251;50.844;7.978;2023-04-30T02:32:06;99416.34;;;3.17;100.00
77877;BME280;67251;50.844;7.978;2023-04-30T02:34:33;99419.81;;;3.27;100.00
77877;BME280;67251;50.844;7.978;2023-04-30T02:36:58;99424.53;;;3.33;100.00
77877;BME280;67251;50.844;7.978;2023-04-30T02:39:23;99419.78;;;3.37;100.00
77877;BME280;67251;50.844;7.978;2023-04-30T02:41:49;99420.34;;;3.40;100.00
77877;BME280;67251;50.844;7.978;2023-04-30T02:44:14;99431.06;;;3.48;100.00
77877;BME280;67251;50.844;7.978;2023-04-30T02:46:40;99431.47;;;3.53;100.00
77877;BME280;67251;50.844;7.978;2023-04-30T02:49:05;99431.16;;;3.56;100.00
77877;BME280;67251;50.844;7.978;2023-04-30T02:51:31;99429.22;;;3.58;100.00
77877;BME280;67251;50.844;7.978;2023-04-30T02:53:57;99425.59;;;3.59;100.00
77877;BME280;67251;50.844;7.978;2023-04-30T02:56:22;99425.75;;;3.58;100.00
77877;BME280;67251;50.844;7.978;2023-04-30T02:58:48;99423.94;;;3.58;100.00
77877;BME280;67251;50.844;7.978;2023-04-30T03:01:13;99427.28;;;3.61;100.00
77877;BME280;67251;50.844;7.978;2023-04-30T03:03:38;99425.34;;;3.63;100.00
77877;BME280;67251;50.844;7.978;2023-04-30T03:06:04;99427.97;;;3.63;100.00
77877;BME280;67251;50.844;7.978;2023-04-30T03:08:29;99430.63;;;3.63;100.00
77877;BME280;67251;50.844;7.978;2023-04-30T03:10:55;99433.94;;;3.65;100.00
77877;BME280;67251;50.844;7.978;2023-04-30T03:13:20;99434.63;;;3.67;100.00
77877;BME280;67251;50.844;7.978;2023-04-30T03:15:45;99438.13;;;3.67;100.00
77877;BME280;67251;50.844;7.978;2023-04-30T03:18:11;99426.84;;;3.65;100.00
77877;BME280;67251;50.844;7.978;2023-04-30T03:20:36;99429.47;;;3.65;100.00
77877;BME280;67251;50.844;7.978;2023-04-30T03:23:02;99435.59;;;3.66;100.00
77877;BME280;67251;50.844;7.978;2023-04-30T03:25:27;99426.84;;;3.65;100.00
77877;BME280;67251;50.844;7.978;2023-04-30T03:27:52;99436.59;;;3.65;100.00
77877;BME280;67251;50.844;7.978;2023-04-30T03:30:18;99431.47;;;3.63;100.00
77877;BME280;67251;50.844;7.978;2023-04-30T03:32:43;99428.41;;;3.58;100.00
77877;BME280;67251;50.844;7.978;2023-04-30T03:35:09;99429.22;;;3.58;100.00
77877;BME280;67251;50.844;7.978;2023-04-30T03:37:34;99430.91;;;3.59;100.00
77877;BME280;67251;50.844;7.978;2023-04-30T03:39:59;99437.84;;;3.61;100.00
77877;BME280;67251;50.844;7.978;2023-04-30T03:42:25;99428.25;;;3.59;100.00
77877;BME280;67251;50.844;7.978;2023-04-30T03:44:50;99429.22;;;3.58;100.00
77877;BME280;67251;50.844;7.978;2023-04-30T03:47:16;99425.75;;;3.58;100.00
77877;BME280;67251;50.844;7.978;2023-04-30T03:49:41;99421.28;;;3.58;100.00
77877;BME280;67251;50.844;7.978;2023-04-30T03:52:07;99425.59;;;3.59;100.00
77877;BME280;67251;50.844;7.978;2023-04-30T03:54:32;99421.28;;;3.58;100.00
77877;BME280;67251;50.844;7.978;2023-04-30T03:57:01;99423.38;;;3.55;100.00
77877;BME280;67251;50.844;7.978;2023-04-30T03:59:30;99428.13;;;3.51;100.00
77877;BME280;67251;50.844;7.978;2023-04-30T04:01:56;99423.97;;;3.49;100.00
77877;BME280;67251;50.844;7.978;2023-04-30T04:04:22;99428.28;;;3.50;100.00
77877;BME280;67251;50.844;7.978;2023-04-30T04:06:47;99428.94;;;3.52;100.00
77877;BME280;67251;50.844;7.978;2023-04-30T04:09:15;99427.00;;;3.54;100.00
77877;BME280;67251;50.844;7.978;2023-04-30T04:11:41;99426.44;;;3.50;100.00
77877;BME280;67251;50.844;7.978;2023-04-30T04:14:06;99429.25;;;3.49;100.00
77877;BME280;67251;50.844;7.978;2023-04-30T04:16:31;99432.56;;;3.51;100.00
77877;BME280;67251;50.844;7.978;2023-04-30T04:18:57;99429.78;;;3.52;100.00
77877;BME280;67251;50.844;7.978;2023-04-30T04:21:22;99426.19;;;3.53;100.00
77877;BME280;67251;50.844;7.978;2023-04-30T04:23:47;99433.13;;;3.54;100.00
77877;BME280;67251;50.844;7.978;2023-04-30T04:26:13;99430.50;;;3.54;100.00
77877;BME280;67251;50.844;7.978;2023-04-30T04:28:39;99433.81;;;3.56;100.00
77877;BME280;67251;50.844;7.978;2023-04-30T04:31:04;99438.13;;;3.57;100.00
77877;BME280;67251;50.844;7.978;2023-04-30T04:33:29;99443.41;;;3.57;100.00
77877;BME280;67251;50.844;7.978;2023-04-30T04:35:55;99441.75;;;3.56;100.00
77877;BME280;67251;50.844;7.978;2023-04-30T04:38:21;99442.75;;;3.55;100.00
77877;BME280;67251;50.844;7.978;2023-04-30T04:40:53;99436.47;;;3.56;100.00
77877;BME280;67251;50.844;7.978;2023-04-30T04:43:18;99441.47;;;3.59;100.00
77877;BME280;67251;50.844;7.978;2023-04-30T04:45:44;99443.97;;;3.61;100.00
77877;BME280;67251;50.844;7.978;2023-04-30T04:48:11;99441.22;;;3.63;100.00
77877;BME280;67251;50.844;7.978;2023-04-30T04:50:36;99443.00;;;3.62;100.00
77877;BME280;67251;50.844;7.978;2023-04-30T04:53:01;99444.25;;;3.68;100.00
77877;BME280;67251;50.844;7.978;2023-04-30T04:55:27;99447.31;;;3.73;100.00
77877;BME280;67251;50.844;7.978;2023-04-30T04:57:52;99450.06;;;3.81;100.00
77877;BME280;67251;50.844;7.978;2023-04-30T05:00:18;99450.63;;;3.75;100.00
77877;BME280;67251;50.844;7.978;2023-04-30T05:02:46;99448.00;;;3.65;100.00
77877;BME280;67251;50.844;7.978;2023-04-30T05:05:11;99444.81;;;3.52;100.00
77877;BME280;67251;50.844;7.978;2023-04-30T05:07:36;99452.22;;;3.58;100.00
77877;BME280;67251;50.844;7.978;2023-04-30T05:10:02;99447.47;;;3.52;100.00
77877;BME280;67251;50.844;7.978;2023-04-30T05:12:27;99456.38;;;3.61;100.00
77877;BME280;67251;50.844;7.978;2023-04-30T05:14:52;99457.50;;;3.58;100.00
77877;BME280;67251;50.844;7.978;2023-04-30T05:17:18;99457.78;;;3.45;100.00
77877;BME280;67251;50.844;7.978;2023-04-30T05:19:43;99456.25;;;3.43;100.00
77877;BME280;67251;50.844;7.978;2023-04-30T05:22:11;99454.97;;;3.56;100.00
77877;BME280;67251;50.844;7.978;2023-04-30T05:24:37;99453.16;;;3.67;100.00
77877;BME280;67251;50.844;7.978;2023-04-30T05:27:02;99451.91;;;3.61;100.00
77877;BME280;67251;50.844;7.978;2023-04-30T05:29:29;99455.13;;;3.55;100.00
77877;BME280;67251;50.844;7.978;2023-04-30T05:31:54;99448.31;;;3.52;100.00
77877;BME280;67251;50.844;7.978;2023-04-30T05:34:20;99451.78;;;3.72;100.00
77877;BME280;67251;50.844;7.978;2023-04-30T05:36:45;99457.56;;;3.95;100.00
77877;BME280;67251;50.844;7.978;2023-04-30T05:39:10;99456.03;;;3.93;99.42
77877;BME280;67251;50.844;7.978;2023-04-30T05:41:36;99455.47;;;3.89;98.33
77877;BME280;67251;50.844;7.978;2023-04-30T05:44:01;99464.84;;;3.74;97.15
77877;BME280;67251;50.844;7.978;2023-04-30T05:46:29;99460.78;;;3.89;96.81
77877;BME280;67251;50.844;7.978;2023-04-30T05:48:54;99465.38;;;3.87;95.85
77877;BME280;67251;50.844;7.978;2023-04-30T05:51:20;99460.94;;;3.88;96.00
77877;BME280;67251;50.844;7.978;2023-04-30T05:53:45;99464.22;;;3.99;95.91
77877;BME280;67251;50.844;7.978;2023-04-30T05:56:10;99459.41;;;3.75;94.54
77877;BME280;67251;50.844;7.978;2023-04-30T05:58:37;99464.84;;;3.74;95.52
77877;BME280;67251;50.844;7.978;2023-04-30T06:01:03;99468.28;;;3.94;95.29
77877;BME280;67251;50.844;7.978;2023-04-30T06:03:28;99473.41;;;4.15;94.71
77877;BME280;67251;50.844;7.978;2023-04-30T06:05:53;99470.84;;;4.23;93.66
77877;BME280;67251;50.844;7.978;2023-04-30T06:08:19;99476.97;;;4.33;92.96
77877;BME280;67251;50.844;7.978;2023-04-30T06:10:44;99471.56;;;4.52;92.04
77877;BME280;67251;50.844;7.978;2023-04-30T06:13:10;99471.72;;;4.96;90.88
77877;BME280;67251;50.844;7.978;2023-04-30T06:15:36;99472.13;;;5.19;88.47
77877;BME280;67251;50.844;7.978;2023-04-30T06:18:01;99469.72;;;5.70;86.29
77877;BME280;67251;50.844;7.978;2023-04-30T06:20:27;99457.78;;;6.52;83.80
77877;BME280;67251;50.844;7.978;2023-04-30T06:22:52;99463.38;;;6.40;82.92
77877;BME280;67251;50.844;7.978;2023-04-30T06:25:18;99459.91;;;6.48;82.04
77877;BME280;67251;50.844;7.978;2023-04-30T06:27:45;99464.22;;;6.49;81.75
77877;BME280;67251;50.844;7.978;2023-04-30T06:30:15;99458.75;;;6.93;80.94
77877;BME280;67251;50.844;7.978;2023-04-30T06:32:41;99467.03;;;6.90;80.20
77877;BME280;67251;50.844;7.978;2023-04-30T06:35:07;99463.78;;;7.37;79.08
77877;BME280;67251;50.844;7.978;2023-04-30T06:37:35;99473.28;;;7.56;77.61
77877;BME280;67251;50.844;7.978;2023-04-30T06:40:05;99473.47;;;7.54;77.00
77877;BME280;67251;50.844;7.978;2023-04-30T06:42:31;99464.63;;;7.70;76.81
77877;BME280;67251;50.844;7.978;2023-04-30T06:44:59;99472.34;;;8.37;74.28
77877;BME280;67251;50.844;7.978;2023-04-30T06:47:29;99465.84;;;8.48;72.81
77877;BME280;67251;50.844;7.978;2023-04-30T06:50:01;99465.31;;;9.14;70.84
77877;BME280;67251;50.844;7.978;2023-04-30T06:52:27;99466.69;;;9.94;67.97
77877;BME280;67251;50.844;7.978;2023-04-30T06:54:52;99451.78;;;12.23;61.91
77877;BME280;67251;50.844;7.978;2023-04-30T06:57:18;99446.22;;;14.27;55.41
77877;BME280;67251;50.844;7.978;2023-04-30T06:59:43;99436.03;;;15.95;49.42
77877;BME280;67251;50.844;7.978;2023-04-30T07:02:09;99441.78;;;17.69;45.17
77877;BME280;67251;50.844;7.978;2023-04-30T07:04:34;99435.09;;;18.77;42.13
77877;BME280;67251;50.844;7.978;2023-04-30T07:07:00;99429.56;;;19.91;39.41
77877;BME280;67251;50.844;7.978;2023-04-30T07:09:29;99430.19;;;19.48;39.94
77877;BME280;67251;50.844;7.978;2023-04-30T07:11:56;99431.16;;;18.85;39.91
77877;BME280;67251;50.844;7.978;2023-04-30T07:14:22;99423.19;;;21.29;36.60
77877;BME280;67251;50.844;7.978;2023-04-30T07:16:51;99417.81;;;21.99;34.95
77877;BME280;67251;50.844;7.978;2023-04-30T07:19:17;99419.56;;;22.15;34.44
77877;BME280;67251;50.844;7.978;2023-04-30T07:21:43;99409.75;;;23.95;32.92
77877;BME280;67251;50.844;7.978;2023-04-30T07:24:08;99423.84;;;22.06;33.51
77877;BME280;67251;50.844;7.978;2023-04-30T07:26:34;99405.31;;;24.30;31.68
77877;BME280;67251;50.844;7.978;2023-04-30T07:29:00;99392.75;;;24.99;29.98
77877;BME280;67251;50.844;7.978;2023-04-30T07:31:25;99397.50;;;24.73;29.72
77877;BME280;67251;50.844;7.978;2023-04-30T07:33:51;99400.72;;;23.80;30.36
77877;BME280;67251;50.844;7.978;2023-04-30T07:36:16;99415.56;;;21.90;33.29
77877;BME280;67251;50.844;7.978;2023-04-30T07:38:42;99410.72;;;22.35;32.90
77877;BME280;67251;50.844;7.978;2023-04-30T07:41:07;99405.50;;;22.33;33.84
77877;BME280;67251;50.844;7.978;2023-04-30T07:43:34;99395.09;;;22.78;33.25
77877;BME280;67251;50.844;7.978;2023-04-30T07:46:00;99388.28;;;24.54;30.97
77877;BME280;67251;50.844;7.978;2023-04-30T07:48:25;99378.03;;;24.85;29.47
77877;BME280;67251;50.844;7.978;2023-04-30T07:50:51;99382.50;;;25.20;28.22
77877;BME280;67251;50.844;7.978;2023-04-30T07:53:16;99403.28;;;22.25;32.69
77877;BME280;67251;50.844;7.978;2023-04-30T07:55:42;99386.53;;;23.57;30.66
77877;BME280;67251;50.844;7.978;2023-04-30T07:58:07;99384.78;;;24.28;30.23
77877;BME280;67251;50.844;7.978;2023-04-30T08:00:33;99379.31;;;24.97;28.88
77877;BME280;67251;50.844;7.978;2023-04-30T08:02:58;99379.00;;;26.36;26.93
77877;BME280;67251;50.844;7.978;2023-04-30T08:05:25;99373.72;;;25.91;27.31
77877;BME280;67251;50.844;7.978;2023-04-30T08:07:51;99387.88;;;23.75;31.05
77877;BME280;67251;50.844;7.978;2023-04-30T08:10:16;99389.19;;;25.43;29.75
77877;BME280;67251;50.844;7.978;2023-04-30T08:12:42;99384.78;;;25.47;28.36
77877;BME280;67251;50.844;7.978;2023-04-30T08:15:07;99384.91;;;26.91;27.34
77877;BME280;67251;50.844;7.978;2023-04-30T08:17:33;99382.03;;;27.58;26.43
77877;BME280;67251;50.844;7.978;2023-04-30T08:20:00;99388.88;;;26.13;27.62
77877;BME280;67251;50.844;7.978;2023-04-30T08:22:26;99375.63;;;27.62;26.05
77877;BME280;67251;50.844;7.978;2023-04-30T08:24:51;99377.59;;;27.24;25.95
77877;BME280;67251;50.844;7.978;2023-04-30T08:27:17;99374.66;;;27.72;25.12
77877;BME280;67251;50.844;7.978;2023-04-30T08:29:42;99373.13;;;28.95;25.34
77877;BME280;67251;50.844;7.978;2023-04-30T08:32:08;99369.13;;;29.60;23.51
77877;BME280;67251;50.844;7.978;2023-04-30T08:34:33;99368.50;;;29.04;22.57
77877;BME280;67251;50.844;7.978;2023-04-30T08:36:59;99358.69;;;29.34;22.96
77877;BME280;67251;50.844;7.978;2023-04-30T08:39:25;99360.13;;;29.76;21.73
77877;BME280;67251;50.844;7.978;2023-04-30T08:41:54;99360.78;;;28.65;22.51
77877;BME280;67251;50.844;7.978;2023-04-30T08:44:21;99360.19;;;26.72;25.30
77877;BME280;67251;50.844;7.978;2023-04-30T08:46:55;99360.78;;;26.69;25.28
77877;BME280;67251;50.844;7.978;2023-04-30T08:49:22;99368.59;;;26.81;26.08
77877;BME280;67251;50.844;7.978;2023-04-30T08:51:48;99367.84;;;24.95;26.73
77877;BME280;67251;50.844;7.978;2023-04-30T08:54:14;99370.78;;;25.48;26.41
77877;BME280;67251;50.844;7.978;2023-04-30T08:56:40;99370.50;;;25.11;26.63
77877;BME280;67251;50.844;7.978;2023-04-30T08:59:06;99365.69;;;26.24;24.86
77877;BME280;67251;50.844;7.978;2023-04-30T09:01:33;99368.16;;;25.67;25.99
77877;BME280;67251;50.844;7.978;2023-04-30T09:03:59;99377.25;;;23.74;28.37
77877;BME280;67251;50.844;7.978;2023-04-30T09:06:24;99382.03;;;21.26;32.45
77877;BME280;67251;50.844;7.978;2023-04-30T09:08:51;99386.09;;;21.23;33.15
77877;BME280;67251;50.844;7.978;2023-04-30T09:11:26;99370.31;;;22.94;29.33
77877;BME280;67251;50.844;7.978;2023-04-30T09:13:56;99362.75;;;23.83;28.22
77877;BME280;67251;50.844;7.978;2023-04-30T09:16:23;99366.00;;;24.81;28.12
77877;BME280;67251;50.844;7.978;2023-04-30T09:18:49;99363.50;;;24.19;27.78
77877;BME280;67251;50.844;7.978;2023-04-30T09:21:15;99357.53;;;24.77;26.53
77877;BME280;67251;50.844;7.978;2023-04-30T09:23:58;99368.78;;;22.51;28.48
77877;BME280;67251;50.844;7.978;2023-04-30T09:28:57;99359.22;;;23.73;27.55
77877;BME280;67251;50.844;7.978;2023-04-30T09:31:23;99352.84;;;24.83;27.57
77877;BME280;67251;50.844;7.978;2023-04-30T09:33:49;99355.41;;;25.53;26.93
77877;BME280;67251;50.844;7.978;2023-04-30T09:36:15;99347.44;;;25.56;23.94
77877;BME280;67251;50.844;7.978;2023-04-30T09:38:41;99349.63;;;23.95;25.52
77877;BME280;67251;50.844;7.978;2023-04-30T09:41:22;99364.34;;;21.50;29.91
77877;BME280;67251;50.844;7.978;2023-04-30T09:43:49;99366.59;;;18.99;33.34
77877;BME280;67251;50.844;7.978;2023-04-30T09:46:17;99365.94;;;18.39;34.36
77877;BME280;67251;50.844;7.978;2023-04-30T09:48:43;99351.41;;;20.37;31.51
77877;BME280;67251;50.844;7.978;2023-04-30T09:51:09;99349.91;;;21.55;29.67
77877;BME280;67251;50.844;7.978;2023-04-30T09:53:36;99346.59;;;20.45;29.83
77877;BME280;67251;50.844;7.978;2023-04-30T09:56:06;99356.69;;;18.24;34.28
77877;BME280;67251;50.844;7.978;2023-04-30T09:58:36;99347.19;;;18.90;32.99
77877;BME280;67251;50.844;7.978;2023-04-30T10:01:07;99340.19;;;19.39;32.24
77877;BME280;67251;50.844;7.978;2023-04-30T10:03:33;99331.06;;;21.43;31.13
77877;BME280;67251;50.844;7.978;2023-04-30T10:05:59;99323.66;;;22.18;29.05
77877;BME280;67251;50.844;7.978;2023-04-30T10:08:32;99310.72;;;22.56;26.77
77877;BME280;67251;50.844;7.978;2023-04-30T10:11:04;99326.28;;;21.28;29.15
77877;BME280;67251;50.844;7.978;2023-04-30T10:13:53;99323.22;;;21.52;29.05
77877;BME280;67251;50.844;7.978;2023-04-30T10:18:51;99305.91;;;23.19;27.35
77877;BME280;67251;50.844;7.978;2023-04-30T10:21:17;99296.09;;;23.13;25.99
77877;BME280;67251;50.844;7.978;2023-04-30T10:23:45;99300.94;;;22.85;26.95
77877;BME280;67251;50.844;7.978;2023-04-30T10:26:11;99295.19;;;22.61;27.23
77877;BME280;67251;50.844;7.978;2023-04-30T10:28:38;99283.25;;;22.10;27.48
77877;BME280;67251;50.844;7.978;2023-04-30T10:31:06;99294.16;;;20.98;28.88
77877;BME280;67251;50.844;7.978;2023-04-30T10:36:41;99300.66;;;21.24;29.19
77877;BME280;67251;50.844;7.978;2023-04-30T10:39:09;99300.84;;;20.14;29.00
77877;BME280;67251;50.844;7.978;2023-04-30T10:41:35;99304.09;;;21.14;28.62
77877;BME280;67251;50.844;7.978;2023-04-30T10:44:01;99295.91;;;20.82;28.80
77877;BME280;67251;50.844;7.978;2023-04-30T10:46:29;99295.13;;;21.14;28.47
77877;BME280;67251;50.844;7.978;2023-04-30T10:48:54;99292.78;;;20.96;28.07
77877;BME280;67251;50.844;7.978;2023-04-30T10:51:20;99288.44;;;20.67;28.99
77877;BME280;67251;50.844;7.978;2023-04-30T10:53:50;99279.34;;;20.57;30.09
77877;BME280;67251;50.844;7.978;2023-04-30T10:56:30;99277.00;;;20.98;30.84
77877;BME280;67251;50.844;7.978;2023-04-30T10:58:59;99273.25;;;20.99;28.93
77877;BME280;67251;50.844;7.978;2023-04-30T11:01:27;99268.59;;;20.67;29.13
77877;BME280;67251;50.844;7.978;2023-04-30T11:04:08;99267.81;;;20.01;29.63
77877;BME280;67251;50.844;7.978;2023-04-30T11:07:08;99266.59;;;19.19;31.39
77877;BME280;67251;50.844;7.978;2023-04-30T11:15:05;99257.28;;;19.32;31.56
77877;BME280;67251;50.844;7.978;2023-04-30T11:17:31;99259.03;;;18.87;31.50
77877;BME280;67251;50.844;7.978;2023-04-30T11:19:59;99255.44;;;19.15;33.38
77877;BME280;67251;50.844;7.978;2023-04-30T11:22:27;99254.00;;;19.63;32.50
77877;BME280;67251;50.844;7.978;2023-04-30T11:27:27;99244.06;;;19.35;32.14
77877;BME280;67251;50.844;7.978;2023-04-30T11:29:53;99250.59;;;19.56;31.27
77877;BME280;67251;50.844;7.978;2023-04-30T11:32:21;99250.72;;;19.45;33.64
77877;BME280;67251;50.844;7.978;2023-04-30T11:34:47;99239.47;;;19.75;31.51
77877;BME280;67251;50.844;7.978;2023-04-30T11:37:18;99237.66;;;19.80;31.55
77877;BME280;67251;50.844;7.978;2023-04-30T11:39:46;99235.16;;;20.23;31.07
77877;BME280;67251;50.844;7.978;2023-04-30T11:42:19;99234.00;;;20.62;30.51
77877;BME280;67251;50.844;7.978;2023-04-30T11:44:44;99227.22;;;20.65;30.28
77877;BME280;67251;50.844;7.978;2023-04-30T11:47:12;99222.88;;;20.96;30.39
77877;BME280;67251;50.844;7.978;2023-04-30T11:49:38;99223.03;;;20.52;31.88
77877;BME280;67251;50.844;7.978;2023-04-30T11:52:04;99226.72;;;19.97;31.99
77877;BME280;67251;50.844;7.978;2023-04-30T11:54:30;99221.19;;;19.87;32.08
77877;BME280;67251;50.844;7.978;2023-04-30T11:56:56;99218.53;;;20.14;31.36
77877;BME280;67251;50.844;7.978;2023-04-30T11:59:28;99208.84;;;20.23;30.50
77877;BME280;67251;50.844;7.978;2023-04-30T12:01:54;99212.13;;;20.25;32.26
77877;BME280;67251;50.844;7.978;2023-04-30T12:04:20;99215.00;;;19.91;31.42
77877;BME280;67251;50.844;7.978;2023-04-30T12:06:46;99219.91;;;19.95;31.62
77877;BME280;67251;50.844;7.978;2023-04-30T12:09:11;99216.13;;;19.96;30.82
77877;BME280;67251;50.844;7.978;2023-04-30T12:11:37;99214.13;;;20.13;31.39
77877;BME280;67251;50.844;7.978;2023-04-30T12:14:08;99204.69;;;19.94;31.44
77877;BME280;67251;50.844;7.978;2023-04-30T12:19:16;99218.44;;;18.47;33.23
77877;BME280;67251;50.844;7.978;2023-04-30T12:21:43;99210.28;;;17.90;33.84
77877;BME280;67251;50.844;7.978;2023-04-30T12:24:11;99218.34;;;17.61;35.00
77877;BME280;67251;50.844;7.978;2023-04-30T12:26:37;99211.28;;;17.49;34.87
77877;BME280;67251;50.844;7.978;2023-04-30T12:29:08;99214.81;;;17.61;35.51
77877;BME280;67251;50.844;7.978;2023-04-30T12:31:36;99205.34;;;17.87;34.00
77877;BME280;67251;50.844;7.978;2023-04-30T12:34:06;99204.31;;;18.62;34.43
77877;BME280;67251;50.844;7.978;2023-04-30T12:36:33;99206.03;;;18.97;33.74
77877;BME280;67251;50.844;7.978;2023-04-30T12:39:11;99204.47;;;19.01;31.95
77877;BME280;67251;50.844;7.978;2023-04-30T12:41:47;99186.25;;;19.74;31.50
77877;BME280;67251;50.844;7.978;2023-04-30T12:44:17;99195.59;;;19.61;34.00
77877;BME280;67251;50.844;7.978;2023-04-30T12:46:43;99192.75;;;19.73;31.42
77877;BME280;67251;50.844;7.978;2023-04-30T12:49:10;99196.19;;;20.12;31.73
77877;BME280;67251;50.844;7.978;2023-04-30T12:51:37;99189.66;;;20.35;31.17
77877;BME280;67251;50.844;7.978;2023-04-30T12:54:05;99177.50;;;21.07;30.42
77877;BME280;67251;50.844;7.978;2023-04-30T12:56:31;99178.44;;;21.23;29.41
77877;BME280;67251;50.844;7.978;2023-04-30T12:58:56;99181.44;;;21.68;28.79
77877;BME280;67251;50.844;7.978;2023-04-30T13:01:21;99176.44;;;21.08;29.67
77877;BME280;67251;50.844;7.978;2023-04-30T13:03:52;99177.50;;;20.15;31.22
77877;BME280;67251;50.844;7.978;2023-04-30T13:06:20;99179.56;;;20.57;30.57
77877;BME280;67251;50.844;7.978;2023-04-30T13:08:45;99179.72;;;20.19;30.28
77877;BME280;67251;50.844;7.978;2023-04-30T13:11:11;99178.38;;;19.55;31.57
77877;BME280;67251;50.844;7.978;2023-04-30T13:13:36;99172.03;;;19.88;30.93
77877;BME280;67251;50.844;7.978;2023-04-30T13:16:01;99158.44;;;20.37;31.64
77877;BME280;67251;50.844;7.978;2023-04-30T13:18:31;99166.72;;;19.55;32.51
77877;BME280;67251;50.844;7.978;2023-04-30T13:20:56;99167.56;;;19.00;33.06
77877;BME280;67251;50.844;7.978;2023-04-30T13:23:21;99163.75;;;18.50;34.26
77877;BME280;67251;50.844;7.978;2023-04-30T13:25:47;99163.78;;;19.01;34.35
77877;BME280;67251;50.844;7.978;2023-04-30T13:28:12;99167.97;;;18.75;33.69
77877;BME280;67251;50.844;7.978;2023-04-30T13:30:38;99160.41;;;18.60;33.70
77877;BME280;67251;50.844;7.978;2023-04-30T13:33:05;99159.34;;;19.11;33.42
77877;BME280;67251;50.844;7.978;2023-04-30T13:35:30;99158.16;;;19.63;32.29